Konpira2 — JJ3664 — position and weather

sailwx.info

Track history (hours):
 
Tides and Currents Weather Stations Pressure Air Temp Water Temp Dewpoint Dewpoint Depression Visibility Wind Speed Wind Dir Waves Ship Positions

Konpira2

Last reported at 2017-Oct-20 05:45 UTC. Time now 2017-Oct-20 06:58 UTC.
Position N 34°37' E 134°56'.

Length 108 m; draft 4.5 m.

Type: Ship. MMSI: 431000457.

Date/timePositionNaut miles runAvg speedWind from/ knotsBaromVisibWave heightAir tempDewpointWater temp
2017-Oct-20 05:45N 34°37' E 134°56'415.0
2017-Oct-20 05:30N 34°38' E 135°00'713.4
2017-Oct-20 05:01N 34°37' E 135°08'5 9.9
2017-Oct-20 04:30N 34°41' E 135°12'0 0.0
2017-Oct-20 04:00N 34°41' E 135°12'0 0.0
2017-Oct-20 03:30N 34°41' E 135°12'0 0.0
2017-Oct-20 03:00N 34°41' E 135°12'0 0.0
2017-Oct-20 02:30N 34°41' E 135°12'2 3.0
2017-Oct-20 02:00N 34°39' E 135°11'815.0
2017-Oct-20 01:30N 34°35' E 135°04'815.1
2017-Oct-20 01:00N 34°35' E 134°55'10 1.6
2017-Oct-19 18:28N 34°32' E 134°43'816.6
2017-Oct-19 17:58N 34°35' E 134°52'814.6
2017-Oct-19 17:24N 34°37' E 135°02'513.2
2017-Oct-19 17:00N 34°37' E 135°08'510.5
2017-Oct-19 16:30N 34°41' E 135°12'0 0.0
2017-Oct-19 16:00N 34°41' E 135°12'0 0.0
2017-Oct-19 15:30N 34°41' E 135°12'1 2.1
2017-Oct-19 15:00N 34°40' E 135°12'815.2
2017-Oct-19 14:31N 34°35' E 135°05'816.3
2017-Oct-19 14:00N 34°36' E 134°55'1 0.2
2017-Oct-19 05:56N 34°36' E 134°53'715.1
2017-Oct-19 05:28N 34°37' E 135°01'613.4
2017-Oct-19 05:00N 34°37' E 135°09'5 9.8
2017-Oct-19 04:30N 34°41' E 135°12'0 0.0
2017-Oct-19 04:00N 34°41' E 135°12'0 0.0
2017-Oct-19 03:30N 34°41' E 135°12'0 0.0
2017-Oct-19 03:00N 34°41' E 135°12'0 0.0
2017-Oct-19 02:30N 34°41' E 135°12'1 2.7
2017-Oct-19 02:00N 34°40' E 135°12'815.3
2017-Oct-19 01:30N 34°35' E 135°04'914.7
2017-Oct-19 00:52N 34°35' E 134°53'5 0.8
2017-Oct-18 17:53N 34°33' E 134°46'616.5
2017-Oct-18 17:30N 34°36' E 134°53'814.3
2017-Oct-18 16:58N 34°37' E 135°02'613.5
2017-Oct-18 16:30N 34°38' E 135°10'4 7.3
2017-Oct-18 16:00N 34°41' E 135°12'0 0.0
2017-Oct-18 15:30N 34°41' E 135°12'0 0.1
2017-Oct-18 15:00N 34°41' E 135°12'1312.6
2017-Oct-18 14:01N 34°36' E 134°58'917.2
2017-Oct-18 13:29N 34°33' E 134°48'3 0.4
2017-Oct-18 06:02N 34°34' E 134°50'416.9
2017-Oct-18 05:46N 34°36' E 134°55'614.6
2017-Oct-18 05:21N 34°36' E 135°02'514.1
2017-Oct-18 05:00N 34°37' E 135°08'5 9.8
2017-Oct-18 04:30N 34°41' E 135°12'0 0.0
2017-Oct-18 04:00N 34°41' E 135°12'0 0.0
2017-Oct-18 03:30N 34°41' E 135°12'0 0.0
2017-Oct-18 03:00N 34°41' E 135°12'0 0.0
2017-Oct-18 02:30N 34°41' E 135°12'1 1.6
2017-Oct-18 02:00N 34°40' E 135°12'815.2
2017-Oct-18 01:31N 34°35' E 135°05'815.7
2017-Oct-18 01:00N 34°35' E 134°56'7 1.1
2017-Oct-17 18:04N 34°33' E 134°47'316.8
2017-Oct-17 17:55N 34°34' E 134°50'716.3
2017-Oct-17 17:30N 34°37' E 134°58'713.5
2017-Oct-17 17:00N 34°36' E 135°05'713.2
2017-Oct-17 16:31N 34°40' E 135°12'1 1.5
2017-Oct-17 16:00N 34°41' E 135°12'0 0.0
2017-Oct-17 15:30N 34°41' E 135°12'0 0.0
2017-Oct-17 15:00N 34°41' E 135°12'3 6.3
2017-Oct-17 14:30N 34°38' E 135°11'815.0
2017-Oct-17 14:00N 34°36' E 135°02'917.4
2017-Oct-17 13:29N 34°34' E 134°52'3 0.4
2017-Oct-17 05:49N 34°36' E 134°55'615.2
2017-Oct-17 05:25N 34°37' E 135°02'614.2
2017-Oct-17 05:01N 34°37' E 135°09'5 9.6
2017-Oct-17 04:30N 34°41' E 135°12'0 0.0
2017-Oct-17 04:00N 34°41' E 135°12'0 0.0
2017-Oct-17 03:30N 34°41' E 135°12'0 0.0
2017-Oct-17 03:00N 34°41' E 135°12'0 0.0
2017-Oct-17 02:30N 34°41' E 135°12'0 0.0
2017-Oct-17 02:00N 34°41' E 135°12'2 4.0
2017-Oct-17 01:31N 34°39' E 135°11'815.0
2017-Oct-17 01:01N 34°36' E 135°03'816.8
2017-Oct-17 00:30N 34°35' E 134°53'1 0.2
2017-Oct-16 17:29N 34°35' E 134°51'816.1
2017-Oct-16 16:58N 34°37' E 135°01'613.8
2017-Oct-16 16:30N 34°37' E 135°09'5 9.2
2017-Oct-16 16:00N 34°41' E 135°12'0 0.0
2017-Oct-16 15:30N 34°41' E 135°12'0 0.0
2017-Oct-16 15:00N 34°41' E 135°12'4 7.6
2017-Oct-16 14:30N 34°37' E 135°10'1716.7
2017-Oct-16 13:30N 34°34' E 134°50'3 0.4
2017-Oct-16 05:49N 34°35' E 134°53'618.2
2017-Oct-16 05:30N 34°38' E 134°60'714.9
2017-Oct-16 05:00N 34°36' E 135°08'510.7
2017-Oct-16 04:31N 34°41' E 135°12'0 0.0
2017-Oct-16 04:00N 34°41' E 135°12'0 0.0
2017-Oct-16 03:30N 34°41' E 135°12'0 0.0
2017-Oct-16 03:00N 34°41' E 135°12'0 0.0
2017-Oct-16 02:30N 34°41' E 135°12'0 0.0
2017-Oct-16 02:00N 34°41' E 135°12'2 4.8
2017-Oct-16 01:30N 34°39' E 135°11'815.4
2017-Oct-16 01:00N 34°36' E 135°02'9 1.2
2017-Oct-15 17:25N 34°35' E 134°51'817.4
2017-Oct-15 16:59N 34°38' E 134°60'714.8
2017-Oct-15 16:30N 34°37' E 135°08'510.1
2017-Oct-15 16:00N 34°41' E 135°12'0 0.0
2017-Oct-15 15:30N 34°41' E 135°12'0 0.0
2017-Oct-15 15:00N 34°41' E 135°12'0 0.0
2017-Oct-15 14:00N 34°41' E 135°12'0 0.0
2017-Oct-15 13:30N 34°41' E 135°12'0 0.0
2017-Oct-15 13:00N 34°41' E 135°12'0 0.0
2017-Oct-15 12:30N 34°41' E 135°12'2 4.0
2017-Oct-15 12:00N 34°39' E 135°11'714.5
2017-Oct-15 11:30N 34°35' E 135°04'815.4
2017-Oct-15 11:00N 34°35' E 134°54'1 0.1
2017-Oct-15 03:39N 34°36' E 134°54'417.7
2017-Oct-15 03:27N 34°37' E 134°58'714.9
2017-Oct-15 03:00N 34°36' E 135°05'713.3
2017-Oct-15 02:30N 34°40' E 135°11'1 1.8
2017-Oct-15 02:01N 34°41' E 135°12'0 0.3
2017-Oct-15 01:30N 34°41' E 135°12'713.5
2017-Oct-15 01:01N 34°36' E 135°07'917.4
2017-Oct-15 00:30N 34°36' E 134°56'10 1.5
2017-Oct-14 17:46N 34°33' E 134°45'618.1
2017-Oct-14 17:25N 34°35' E 134°52'817.0
2017-Oct-14 16:57N 34°37' E 135°01'614.6
2017-Oct-14 16:30N 34°37' E 135°09'5 9.1
2017-Oct-14 16:00N 34°41' E 135°12'0 0.0
2017-Oct-14 15:30N 34°41' E 135°12'0 0.0
2017-Oct-14 15:00N 34°41' E 135°12'0 0.0
2017-Oct-14 14:30N 34°41' E 135°12'0 0.0
2017-Oct-14 14:00N 34°41' E 135°12'0 0.0
2017-Oct-14 13:30N 34°41' E 135°12'0 0.0
2017-Oct-14 13:00N 34°41' E 135°12'0 0.0
2017-Oct-14 12:30N 34°41' E 135°12'0 0.0
2017-Oct-14 12:00N 34°41' E 135°12'510.3
2017-Oct-14 11:30N 34°37' E 135°09'815.7
2017-Oct-14 11:00N 34°37' E 134°59'3 0.4
2017-Oct-14 03:33N 34°36' E 134°55'217.6
2017-Oct-14 03:28N 34°37' E 134°57'715.4
2017-Oct-14 03:00N 34°36' E 135°06'713.4
2017-Oct-14 02:30N 34°40' E 135°12'1 1.2
2017-Oct-14 02:00N 34°41' E 135°12'0 0.0
2017-Oct-14 01:30N 34°41' E 135°12'3 6.7
2017-Oct-14 01:00N 34°38' E 135°10'815.2
2017-Oct-14 00:30N 34°37' E 135°01'9 1.3
2017-Oct-13 17:26N 34°35' E 134°50'817.9
2017-Oct-13 17:00N 34°37' E 134°59'815.6
2017-Oct-13 16:30N 34°37' E 135°08'5 9.8
2017-Oct-13 16:00N 34°41' E 135°12'0 0.0
2017-Oct-13 15:30N 34°41' E 135°12'0 0.0
2017-Oct-13 15:00N 34°41' E 135°12'1 2.9
2017-Oct-13 14:31N 34°40' E 135°11'714.5
2017-Oct-13 14:01N 34°35' E 135°05'917.0
2017-Oct-13 13:30N 34°35' E 134°54'1 0.1
2017-Oct-13 05:42N 34°36' E 134°54'419.7
2017-Oct-13 05:28N 34°37' E 134°59'817.3
2017-Oct-13 05:01N 34°37' E 135°08'510.2
2017-Oct-13 04:30N 34°41' E 135°12'0 0.0
2017-Oct-13 04:00N 34°41' E 135°12'0 0.0
2017-Oct-13 03:30N 34°41' E 135°12'0 0.0
2017-Oct-13 03:00N 34°41' E 135°12'0 0.0
2017-Oct-13 02:30N 34°41' E 135°12'0 0.0
2017-Oct-13 02:00N 34°41' E 135°12'4 8.6
2017-Oct-13 01:30N 34°37' E 135°10'816.1
2017-Oct-13 00:59N 34°37' E 134°60'918.5
2017-Oct-13 00:29N 34°33' E 134°49'1 0.1
2017-Oct-12 17:49N 34°34' E 134°48'618.4
2017-Oct-12 17:29N 34°36' E 134°55'816.8
2017-Oct-12 17:00N 34°36' E 135°05'713.7
2017-Oct-12 16:31N 34°40' E 135°12'1 2.1
2017-Oct-12 16:01N 34°41' E 135°12'0 0.0
2017-Oct-12 15:30N 34°41' E 135°12'0 0.8
2017-Oct-12 15:00N 34°41' E 135°12'815.0
2017-Oct-12 14:30N 34°35' E 135°06'815.5
2017-Oct-12 14:00N 34°36' E 134°57'2 0.2
2017-Oct-12 05:38N 34°36' E 134°54'419.6
2017-Oct-12 05:26N 34°38' E 134°59'717.5
2017-Oct-12 05:00N 34°37' E 135°08'510.5
2017-Oct-12 04:30N 34°41' E 135°12'0 0.0
2017-Oct-12 04:00N 34°41' E 135°12'0 0.0
2017-Oct-12 03:30N 34°41' E 135°12'0 0.0
2017-Oct-12 03:00N 34°41' E 135°12'0 0.0
2017-Oct-12 02:30N 34°41' E 135°12'0 0.0
2017-Oct-12 02:00N 34°41' E 135°12'5 9.2
2017-Oct-12 01:30N 34°37' E 135°09'713.6
2017-Oct-12 01:00N 34°37' E 135°01'714.9
2017-Oct-12 00:30N 34°34' E 134°53'2 0.3
2017-Oct-11 17:30N 34°34' E 134°50'917.7
2017-Oct-11 17:00N 34°38' E 134°60'11 0.5
2017-Oct-10 17:39N 34°34' E 134°47'317.3
2017-Oct-10 17:30N 34°35' E 134°50'917.3
2017-Oct-10 16:59N 34°38' E 135°00'714.9
2017-Oct-10 16:30N 34°37' E 135°09'4 8.8
2017-Oct-10 16:00N 34°41' E 135°12'0 0.0
2017-Oct-10 15:30N 34°41' E 135°12'0 0.0
2017-Oct-10 15:00N 34°41' E 135°12'1010.0
2017-Oct-10 14:00N 34°37' E 135°01'815.7
2017-Oct-10 13:30N 34°34' E 134°52'2 0.3
2017-Oct-10 05:50N 34°36' E 134°53'  
Track history (hours):
 
Tides and Currents Weather Stations Pressure Air Temp Water Temp Dewpoint Dewpoint Depression Visibility Wind Speed Wind Dir Waves Ship Positions

Konpira2

Last reported at 2017-Oct-20 05:45 UTC. Time now 2017-Oct-20 06:58 UTC.
Position N 34°37' E 134°56'.

Length 108 m; draft 4.5 m.

Type: Ship. MMSI: 431000457.

Date/timePositionNaut miles runAvg speedWind from/ knotsBaromVisibWave heightAir tempDewpointWater temp
2017-Oct-20 05:45N 34°37' E 134°56'415.0
2017-Oct-20 05:30N 34°38' E 135°00'713.4
2017-Oct-20 05:01N 34°37' E 135°08'5 9.9
2017-Oct-20 04:30N 34°41' E 135°12'0 0.0
2017-Oct-20 04:00N 34°41' E 135°12'0 0.0
2017-Oct-20 03:30N 34°41' E 135°12'0 0.0
2017-Oct-20 03:00N 34°41' E 135°12'0 0.0
2017-Oct-20 02:30N 34°41' E 135°12'2 3.0
2017-Oct-20 02:00N 34°39' E 135°11'815.0
2017-Oct-20 01:30N 34°35' E 135°04'815.1
2017-Oct-20 01:00N 34°35' E 134°55'10 1.6
2017-Oct-19 18:28N 34°32' E 134°43'816.6
2017-Oct-19 17:58N 34°35' E 134°52'814.6
2017-Oct-19 17:24N 34°37' E 135°02'513.2
2017-Oct-19 17:00N 34°37' E 135°08'510.5
2017-Oct-19 16:30N 34°41' E 135°12'0 0.0
2017-Oct-19 16:00N 34°41' E 135°12'0 0.0
2017-Oct-19 15:30N 34°41' E 135°12'1 2.1
2017-Oct-19 15:00N 34°40' E 135°12'815.2
2017-Oct-19 14:31N 34°35' E 135°05'816.3
2017-Oct-19 14:00N 34°36' E 134°55'1 0.2
2017-Oct-19 05:56N 34°36' E 134°53'715.1
2017-Oct-19 05:28N 34°37' E 135°01'613.4
2017-Oct-19 05:00N 34°37' E 135°09'5 9.8
2017-Oct-19 04:30N 34°41' E 135°12'0 0.0
2017-Oct-19 04:00N 34°41' E 135°12'0 0.0
2017-Oct-19 03:30N 34°41' E 135°12'0 0.0
2017-Oct-19 03:00N 34°41' E 135°12'0 0.0
2017-Oct-19 02:30N 34°41' E 135°12'1 2.7
2017-Oct-19 02:00N 34°40' E 135°12'815.3
2017-Oct-19 01:30N 34°35' E 135°04'914.7
2017-Oct-19 00:52N 34°35' E 134°53'5 0.8
2017-Oct-18 17:53N 34°33' E 134°46'616.5
2017-Oct-18 17:30N 34°36' E 134°53'814.3
2017-Oct-18 16:58N 34°37' E 135°02'613.5
2017-Oct-18 16:30N 34°38' E 135°10'4 7.3
2017-Oct-18 16:00N 34°41' E 135°12'0 0.0
2017-Oct-18 15:30N 34°41' E 135°12'0 0.1
2017-Oct-18 15:00N 34°41' E 135°12'1312.6
2017-Oct-18 14:01N 34°36' E 134°58'917.2
2017-Oct-18 13:29N 34°33' E 134°48'3 0.4
2017-Oct-18 06:02N 34°34' E 134°50'416.9
2017-Oct-18 05:46N 34°36' E 134°55'614.6
2017-Oct-18 05:21N 34°36' E 135°02'514.1
2017-Oct-18 05:00N 34°37' E 135°08'5 9.8
2017-Oct-18 04:30N 34°41' E 135°12'0 0.0
2017-Oct-18 04:00N 34°41' E 135°12'0 0.0
2017-Oct-18 03:30N 34°41' E 135°12'0 0.0
2017-Oct-18 03:00N 34°41' E 135°12'0 0.0
2017-Oct-18 02:30N 34°41' E 135°12'1 1.6
2017-Oct-18 02:00N 34°40' E 135°12'815.2
2017-Oct-18 01:31N 34°35' E 135°05'815.7
2017-Oct-18 01:00N 34°35' E 134°56'7 1.1
2017-Oct-17 18:04N 34°33' E 134°47'316.8
2017-Oct-17 17:55N 34°34' E 134°50'716.3
2017-Oct-17 17:30N 34°37' E 134°58'713.5
2017-Oct-17 17:00N 34°36' E 135°05'713.2
2017-Oct-17 16:31N 34°40' E 135°12'1 1.5
2017-Oct-17 16:00N 34°41' E 135°12'0 0.0
2017-Oct-17 15:30N 34°41' E 135°12'0 0.0
2017-Oct-17 15:00N 34°41' E 135°12'3 6.3
2017-Oct-17 14:30N 34°38' E 135°11'815.0
2017-Oct-17 14:00N 34°36' E 135°02'917.4
2017-Oct-17 13:29N 34°34' E 134°52'3 0.4
2017-Oct-17 05:49N 34°36' E 134°55'615.2
2017-Oct-17 05:25N 34°37' E 135°02'614.2
2017-Oct-17 05:01N 34°37' E 135°09'5 9.6
2017-Oct-17 04:30N 34°41' E 135°12'0 0.0
2017-Oct-17 04:00N 34°41' E 135°12'0 0.0
2017-Oct-17 03:30N 34°41' E 135°12'0 0.0
2017-Oct-17 03:00N 34°41' E 135°12'0 0.0
2017-Oct-17 02:30N 34°41' E 135°12'0 0.0
2017-Oct-17 02:00N 34°41' E 135°12'2 4.0
2017-Oct-17 01:31N 34°39' E 135°11'815.0
2017-Oct-17 01:01N 34°36' E 135°03'816.8
2017-Oct-17 00:30N 34°35' E 134°53'1 0.2
2017-Oct-16 17:29N 34°35' E 134°51'816.1
2017-Oct-16 16:58N 34°37' E 135°01'613.8
2017-Oct-16 16:30N 34°37' E 135°09'5 9.2
2017-Oct-16 16:00N 34°41' E 135°12'0 0.0
2017-Oct-16 15:30N 34°41' E 135°12'0 0.0
2017-Oct-16 15:00N 34°41' E 135°12'4 7.6
2017-Oct-16 14:30N 34°37' E 135°10'1716.7
2017-Oct-16 13:30N 34°34' E 134°50'3 0.4
2017-Oct-16 05:49N 34°35' E 134°53'618.2
2017-Oct-16 05:30N 34°38' E 134°60'714.9
2017-Oct-16 05:00N 34°36' E 135°08'510.7
2017-Oct-16 04:31N 34°41' E 135°12'0 0.0
2017-Oct-16 04:00N 34°41' E 135°12'0 0.0
2017-Oct-16 03:30N 34°41' E 135°12'0 0.0
2017-Oct-16 03:00N 34°41' E 135°12'0 0.0
2017-Oct-16 02:30N 34°41' E 135°12'0 0.0
2017-Oct-16 02:00N 34°41' E 135°12'2 4.8
2017-Oct-16 01:30N 34°39' E 135°11'815.4
2017-Oct-16 01:00N 34°36' E 135°02'9 1.2
2017-Oct-15 17:25N 34°35' E 134°51'817.4
2017-Oct-15 16:59N 34°38' E 134°60'714.8
2017-Oct-15 16:30N 34°37' E 135°08'510.1
2017-Oct-15 16:00N 34°41' E 135°12'0 0.0
2017-Oct-15 15:30N 34°41' E 135°12'0 0.0
2017-Oct-15 15:00N 34°41' E 135°12'0 0.0
2017-Oct-15 14:00N 34°41' E 135°12'0 0.0
2017-Oct-15 13:30N 34°41' E 135°12'0 0.0
2017-Oct-15 13:00N 34°41' E 135°12'0 0.0
2017-Oct-15 12:30N 34°41' E 135°12'2 4.0
2017-Oct-15 12:00N 34°39' E 135°11'714.5
2017-Oct-15 11:30N 34°35' E 135°04'815.4
2017-Oct-15 11:00N 34°35' E 134°54'1 0.1
2017-Oct-15 03:39N 34°36' E 134°54'417.7
2017-Oct-15 03:27N 34°37' E 134°58'714.9
2017-Oct-15 03:00N 34°36' E 135°05'713.3
2017-Oct-15 02:30N 34°40' E 135°11'1 1.8
2017-Oct-15 02:01N 34°41' E 135°12'0 0.3
2017-Oct-15 01:30N 34°41' E 135°12'713.5
2017-Oct-15 01:01N 34°36' E 135°07'917.4
2017-Oct-15 00:30N 34°36' E 134°56'10 1.5
2017-Oct-14 17:46N 34°33' E 134°45'618.1
2017-Oct-14 17:25N 34°35' E 134°52'817.0
2017-Oct-14 16:57N 34°37' E 135°01'614.6
2017-Oct-14 16:30N 34°37' E 135°09'5 9.1
2017-Oct-14 16:00N 34°41' E 135°12'0 0.0
2017-Oct-14 15:30N 34°41' E 135°12'0 0.0
2017-Oct-14 15:00N 34°41' E 135°12'0 0.0
2017-Oct-14 14:30N 34°41' E 135°12'0 0.0
2017-Oct-14 14:00N 34°41' E 135°12'0 0.0
2017-Oct-14 13:30N 34°41' E 135°12'0 0.0
2017-Oct-14 13:00N 34°41' E 135°12'0 0.0
2017-Oct-14 12:30N 34°41' E 135°12'0 0.0
2017-Oct-14 12:00N 34°41' E 135°12'510.3
2017-Oct-14 11:30N 34°37' E 135°09'815.7
2017-Oct-14 11:00N 34°37' E 134°59'3 0.4
2017-Oct-14 03:33N 34°36' E 134°55'217.6
2017-Oct-14 03:28N 34°37' E 134°57'715.4
2017-Oct-14 03:00N 34°36' E 135°06'713.4
2017-Oct-14 02:30N 34°40' E 135°12'1 1.2
2017-Oct-14 02:00N 34°41' E 135°12'0 0.0
2017-Oct-14 01:30N 34°41' E 135°12'3 6.7
2017-Oct-14 01:00N 34°38' E 135°10'815.2
2017-Oct-14 00:30N 34°37' E 135°01'9 1.3
2017-Oct-13 17:26N 34°35' E 134°50'817.9
2017-Oct-13 17:00N 34°37' E 134°59'815.6
2017-Oct-13 16:30N 34°37' E 135°08'5 9.8
2017-Oct-13 16:00N 34°41' E 135°12'0 0.0
2017-Oct-13 15:30N 34°41' E 135°12'0 0.0
2017-Oct-13 15:00N 34°41' E 135°12'1 2.9
2017-Oct-13 14:31N 34°40' E 135°11'714.5
2017-Oct-13 14:01N 34°35' E 135°05'917.0
2017-Oct-13 13:30N 34°35' E 134°54'1 0.1
2017-Oct-13 05:42N 34°36' E 134°54'419.7
2017-Oct-13 05:28N 34°37' E 134°59'817.3
2017-Oct-13 05:01N 34°37' E 135°08'510.2
2017-Oct-13 04:30N 34°41' E 135°12'0 0.0
2017-Oct-13 04:00N 34°41' E 135°12'0 0.0
2017-Oct-13 03:30N 34°41' E 135°12'0 0.0
2017-Oct-13 03:00N 34°41' E 135°12'0 0.0
2017-Oct-13 02:30N 34°41' E 135°12'0 0.0
2017-Oct-13 02:00N 34°41' E 135°12'4 8.6
2017-Oct-13 01:30N 34°37' E 135°10'816.1
2017-Oct-13 00:59N 34°37' E 134°60'918.5
2017-Oct-13 00:29N 34°33' E 134°49'1 0.1
2017-Oct-12 17:49N 34°34' E 134°48'618.4
2017-Oct-12 17:29N 34°36' E 134°55'816.8
2017-Oct-12 17:00N 34°36' E 135°05'713.7
2017-Oct-12 16:31N 34°40' E 135°12'1 2.1
2017-Oct-12 16:01N 34°41' E 135°12'0 0.0
2017-Oct-12 15:30N 34°41' E 135°12'0 0.8
2017-Oct-12 15:00N 34°41' E 135°12'815.0
2017-Oct-12 14:30N 34°35' E 135°06'815.5
2017-Oct-12 14:00N 34°36' E 134°57'2 0.2
2017-Oct-12 05:38N 34°36' E 134°54'419.6
2017-Oct-12 05:26N 34°38' E 134°59'717.5
2017-Oct-12 05:00N 34°37' E 135°08'510.5
2017-Oct-12 04:30N 34°41' E 135°12'0 0.0
2017-Oct-12 04:00N 34°41' E 135°12'0 0.0
2017-Oct-12 03:30N 34°41' E 135°12'0 0.0
2017-Oct-12 03:00N 34°41' E 135°12'0 0.0
2017-Oct-12 02:30N 34°41' E 135°12'0 0.0
2017-Oct-12 02:00N 34°41' E 135°12'5 9.2
2017-Oct-12 01:30N 34°37' E 135°09'713.6
2017-Oct-12 01:00N 34°37' E 135°01'714.9
2017-Oct-12 00:30N 34°34' E 134°53'2 0.3
2017-Oct-11 17:30N 34°34' E 134°50'917.7
2017-Oct-11 17:00N 34°38' E 134°60'11 0.5
2017-Oct-10 17:39N 34°34' E 134°47'317.3
2017-Oct-10 17:30N 34°35' E 134°50'917.3
2017-Oct-10 16:59N 34°38' E 135°00'714.9
2017-Oct-10 16:30N 34°37' E 135°09'4 8.8
2017-Oct-10 16:00N 34°41' E 135°12'0 0.0
2017-Oct-10 15:30N 34°41' E 135°12'0 0.0
2017-Oct-10 15:00N 34°41' E 135°12'1010.0
2017-Oct-10 14:00N 34°37' E 135°01'815.7
2017-Oct-10 13:30N 34°34' E 134°52'2 0.3
2017-Oct-10 05:50N 34°36' E 134°53'  

Dump ship's entire track history